createdAt,value
2022-08-21T00:00:20.541Z,17.00
2022-08-21T00:02:48.767Z,16.90
2022-08-21T00:05:15.608Z,16.80
2022-08-21T00:07:42.378Z,16.50
2022-08-21T00:10:09.446Z,16.40
2022-08-21T00:12:36.102Z,16.30
2022-08-21T00:15:03.425Z,16.10
2022-08-21T00:17:32.036Z,16.00
2022-08-21T00:19:58.686Z,15.90
2022-08-21T00:22:25.346Z,15.80
2022-08-21T00:24:52.323Z,15.70
2022-08-21T00:27:19.012Z,15.60
2022-08-21T00:29:45.682Z,15.50
2022-08-21T00:32:12.322Z,15.40
2022-08-21T00:34:38.978Z,15.40
2022-08-21T00:37:05.705Z,15.30
2022-08-21T00:39:32.336Z,15.30
2022-08-21T00:41:58.994Z,15.20
2022-08-21T00:44:25.687Z,15.20
2022-08-21T00:46:52.340Z,15.20
2022-08-21T00:49:19.017Z,15.10
2022-08-21T00:51:52.977Z,15.10
2022-08-21T00:54:20.519Z,15.10
2022-08-21T00:56:51.118Z,15.00
2022-08-21T00:59:18.832Z,14.90
2022-08-21T01:01:45.510Z,14.90
2022-08-21T01:04:12.631Z,14.80
2022-08-21T01:06:39.298Z,14.70
2022-08-21T01:09:05.955Z,14.60
2022-08-21T01:11:32.611Z,14.50
2022-08-21T01:13:59.255Z,14.50
2022-08-21T01:16:26.264Z,14.40
2022-08-21T01:18:53.069Z,14.30
2022-08-21T01:21:25.082Z,14.30
2022-08-21T01:23:55.599Z,14.30
2022-08-21T01:26:33.944Z,14.20
2022-08-21T01:29:17.742Z,14.20
2022-08-21T01:31:44.462Z,14.10
2022-08-21T01:34:11.367Z,14.00
2022-08-21T01:36:38.217Z,14.00
2022-08-21T01:39:05.158Z,14.10
2022-08-21T01:41:31.789Z,14.20
2022-08-21T01:43:58.447Z,14.20
2022-08-21T01:46:25.135Z,14.30
2022-08-21T01:48:51.763Z,14.30
2022-08-21T01:51:18.469Z,14.30
2022-08-21T01:53:45.121Z,14.30
2022-08-21T01:56:13.639Z,14.30
2022-08-21T01:58:41.321Z,14.20
2022-08-21T02:01:08.193Z,14.20
2022-08-21T02:03:35.279Z,14.10
2022-08-21T02:06:03.287Z,14.10
2022-08-21T02:08:29.998Z,14.10
2022-08-21T02:10:56.631Z,14.10
2022-08-21T02:13:23.269Z,14.10
2022-08-21T02:15:49.902Z,14.20
2022-08-21T02:18:16.660Z,14.20
2022-08-21T02:20:46.892Z,14.20
2022-08-21T02:23:14.503Z,14.20
2022-08-21T02:25:41.203Z,14.10
2022-08-21T02:28:10.711Z,14.10
2022-08-21T02:30:40.263Z,14.00
2022-08-21T02:33:10.763Z,13.90
2022-08-21T02:35:37.773Z,13.90
2022-08-21T02:38:13.402Z,14.00
2022-08-21T02:40:48.000Z,14.00
2022-08-21T02:43:16.094Z,14.10
2022-08-21T02:45:43.190Z,14.10
2022-08-21T02:48:12.006Z,14.10
2022-08-21T02:50:44.150Z,14.10
2022-08-21T02:53:12.003Z,14.00
2022-08-21T02:55:38.835Z,14.00
2022-08-21T02:58:06.777Z,13.90
2022-08-21T03:00:34.427Z,13.80
2022-08-21T03:03:01.119Z,13.80
2022-08-21T03:05:28.638Z,13.70
2022-08-21T03:07:55.327Z,13.70
2022-08-21T03:10:22.307Z,13.60
2022-08-21T03:12:49.185Z,13.60
2022-08-21T03:15:18.147Z,13.60
2022-08-21T03:17:45.530Z,13.60
2022-08-21T03:20:19.066Z,13.60
2022-08-21T03:22:52.928Z,13.50
2022-08-21T03:25:21.389Z,13.50
2022-08-21T03:28:08.495Z,13.50
2022-08-21T03:30:40.019Z,13.40
2022-08-21T03:33:06.705Z,13.30
2022-08-21T03:35:33.351Z,13.20
2022-08-21T03:38:00.219Z,13.10
2022-08-21T03:40:27.018Z,13.00
2022-08-21T03:42:53.675Z,12.90
2022-08-21T03:45:20.640Z,12.80
2022-08-21T03:47:59.164Z,12.80
2022-08-21T03:50:26.858Z,12.70
2022-08-21T03:52:53.511Z,12.70
2022-08-21T03:55:20.226Z,12.50
2022-08-21T03:57:46.881Z,12.50
2022-08-21T04:00:15.428Z,12.50
2022-08-21T04:02:42.276Z,12.50
2022-08-21T04:05:08.954Z,12.50
2022-08-21T04:07:36.397Z,12.50
2022-08-21T04:10:04.236Z,12.40
2022-08-21T04:12:31.207Z,12.40
2022-08-21T04:14:57.938Z,12.40
2022-08-21T04:17:24.642Z,12.40
2022-08-21T04:19:53.849Z,12.40
2022-08-21T04:22:20.727Z,12.30
2022-08-21T04:24:47.425Z,12.30
2022-08-21T04:27:14.083Z,12.30
2022-08-21T04:29:40.734Z,12.30
2022-08-21T04:32:07.440Z,12.30
2022-08-21T04:34:34.103Z,12.30
2022-08-21T04:37:00.731Z,12.30
2022-08-21T04:39:29.759Z,12.40
2022-08-21T04:41:56.583Z,12.30
2022-08-21T04:44:23.251Z,12.30
2022-08-21T04:46:49.900Z,12.40
2022-08-21T04:49:16.558Z,12.40
2022-08-21T04:51:43.314Z,12.50
2022-08-21T04:54:21.527Z,12.50
2022-08-21T04:56:54.038Z,12.60
2022-08-21T04:59:26.889Z,12.70
2022-08-21T05:01:57.495Z,12.60
2022-08-21T05:04:27.773Z,12.60
2022-08-21T05:06:55.512Z,12.70
2022-08-21T05:09:22.191Z,12.70
2022-08-21T05:11:49.741Z,12.70
2022-08-21T05:14:16.950Z,12.80
2022-08-21T05:16:44.824Z,12.80
2022-08-21T05:19:11.525Z,12.90
2022-08-21T05:21:42.546Z,12.90
2022-08-21T05:24:09.401Z,13.00
2022-08-21T05:26:43.782Z,13.10
2022-08-21T05:29:14.090Z,13.30
2022-08-21T05:31:41.602Z,13.40
2022-08-21T05:34:09.036Z,13.50
2022-08-21T05:36:36.015Z,13.60
2022-08-21T05:39:03.204Z,13.80
2022-08-21T05:41:29.863Z,13.90
2022-08-21T05:43:56.911Z,14.10
2022-08-21T05:46:24.087Z,14.10
2022-08-21T05:48:50.739Z,14.30
2022-08-21T05:51:17.511Z,14.40
2022-08-21T05:53:44.366Z,14.50
2022-08-21T05:56:11.515Z,14.70
2022-08-21T05:58:38.186Z,14.80
2022-08-21T06:01:05.377Z,14.90
2022-08-21T06:03:37.099Z,15.00
2022-08-21T06:06:03.902Z,15.20
2022-08-21T06:08:30.670Z,15.30
2022-08-21T06:10:58.494Z,15.50
2022-08-21T06:13:25.206Z,15.70
2022-08-21T06:16:00.799Z,15.90
2022-08-21T06:18:27.440Z,16.20
2022-08-21T06:20:54.067Z,16.40
2022-08-21T06:23:20.736Z,16.70
2022-08-21T06:25:47.355Z,17.00
2022-08-21T06:28:14.007Z,17.40
2022-08-21T06:30:40.756Z,17.90
2022-08-21T06:33:07.914Z,18.20
2022-08-21T06:35:34.779Z,18.70
2022-08-21T06:40:29.809Z,19.10
2022-08-21T06:42:58.600Z,20.10
2022-08-21T06:45:25.588Z,20.60
2022-08-21T06:47:55.093Z,21.20
2022-08-21T06:50:21.794Z,21.90
2022-08-21T06:52:48.508Z,22.20
2022-08-21T06:55:21.775Z,22.70
2022-08-21T06:57:52.751Z,22.90
2022-08-21T07:00:19.651Z,24.00
2022-08-21T07:02:46.319Z,25.00
2022-08-21T07:05:17.882Z,25.20
2022-08-21T07:07:45.650Z,24.30
2022-08-21T07:10:22.397Z,23.60
2022-08-21T07:12:50.664Z,24.20
2022-08-21T07:15:18.003Z,24.40
2022-08-21T07:17:44.666Z,24.70
2022-08-21T07:20:11.323Z,24.90
2022-08-21T07:22:40.159Z,25.70
2022-08-21T07:25:07.126Z,25.30
2022-08-21T07:27:34.627Z,25.60
2022-08-21T07:30:01.272Z,25.70
2022-08-21T07:32:27.919Z,26.60
2022-08-21T07:39:50.008Z,27.50
2022-08-21T07:42:17.001Z,27.70
2022-08-21T07:47:10.812Z,28.50
2022-08-21T07:49:37.441Z,28.40
2022-08-21T07:52:04.269Z,28.10
2022-08-21T07:54:33.982Z,28.90
2022-08-21T07:57:01.786Z,28.10
2022-08-21T07:59:28.701Z,28.50
2022-08-21T08:01:55.371Z,29.00
2022-08-21T08:04:26.195Z,28.90
2022-08-21T08:06:53.391Z,28.80
2022-08-21T08:09:20.668Z,29.80
2022-08-21T08:11:47.333Z,29.30
2022-08-21T08:14:13.978Z,29.00
2022-08-21T08:16:40.669Z,30.10
2022-08-21T08:19:07.364Z,29.90
2022-08-21T08:21:34.570Z,28.40
2022-08-21T08:24:01.617Z,28.80
2022-08-21T08:26:45.663Z,29.40
2022-08-21T08:36:52.361Z,29.50
2022-08-21T09:07:33.735Z,31.90
2022-08-21T09:28:13.547Z,33.30
2022-08-21T09:30:40.286Z,32.70
2022-08-21T09:33:07.259Z,33.20
2022-08-21T09:45:44.233Z,33.30
2022-08-21T10:11:02.462Z,35.10
2022-08-21T10:32:22.421Z,32.30
2022-08-21T10:37:47.543Z,34.50
2022-08-21T10:45:46.645Z,33.80
2022-08-21T11:43:29.757Z,33.80
2022-08-21T11:46:00.536Z,33.40
2022-08-21T11:48:48.436Z,33.90
2022-08-21T12:52:38.986Z,33.90
2022-08-21T12:55:07.107Z,32.90
2022-08-21T12:57:33.716Z,32.70
2022-08-21T13:22:36.261Z,32.80
2022-08-21T13:39:56.673Z,35.10
2022-08-21T13:42:24.943Z,35.80
2022-08-21T14:00:27.859Z,36.20
2022-08-21T14:02:55.086Z,35.30
2022-08-21T14:05:32.370Z,34.90
2022-08-21T14:08:05.592Z,34.70
2022-08-21T14:10:32.263Z,34.70
2022-08-21T14:13:03.224Z,34.70
2022-08-21T14:15:31.509Z,34.90
2022-08-21T14:18:18.250Z,35.10
2022-08-21T14:55:27.833Z,34.60
2022-08-21T14:57:54.496Z,34.50
2022-08-21T15:00:24.033Z,34.80
2022-08-21T15:02:53.785Z,35.00
2022-08-21T15:05:31.442Z,34.40
2022-08-21T15:08:00.251Z,34.60
2022-08-21T15:10:26.914Z,34.30
2022-08-21T15:12:53.797Z,34.00
2022-08-21T15:15:20.465Z,34.10
2022-08-21T15:17:48.546Z,34.80
2022-08-21T15:20:15.570Z,34.70
2022-08-21T15:22:47.703Z,33.50
2022-08-21T15:25:15.006Z,33.30
2022-08-21T15:27:41.695Z,33.70
2022-08-21T15:30:08.822Z,34.40
2022-08-21T15:32:35.453Z,34.50
2022-08-21T15:35:03.169Z,34.10
2022-08-21T15:37:30.006Z,34.20
2022-08-21T15:39:56.871Z,34.40
2022-08-21T15:42:24.079Z,34.80
2022-08-21T15:44:50.914Z,35.30
2022-08-21T15:47:19.558Z,35.10
2022-08-21T15:59:45.397Z,35.40
2022-08-21T16:02:18.815Z,34.60
2022-08-21T16:12:06.873Z,34.00
2022-08-21T16:14:35.189Z,30.60
2022-08-21T16:26:57.695Z,29.90
2022-08-21T16:29:25.033Z,28.10
2022-08-21T17:48:35.626Z,27.80
2022-08-21T17:51:02.309Z,24.00
2022-08-21T17:53:28.969Z,23.50
2022-08-21T17:55:55.648Z,23.30
2022-08-21T17:58:22.269Z,23.20
2022-08-21T18:00:48.997Z,23.00
2022-08-21T18:03:18.402Z,22.90
2022-08-21T18:05:46.325Z,22.80
2022-08-21T18:08:13.213Z,22.60
2022-08-21T18:10:41.141Z,22.40
2022-08-21T18:13:08.464Z,22.30
2022-08-21T18:15:35.124Z,22.20
2022-08-21T18:18:01.870Z,22.10
2022-08-21T18:20:28.645Z,22.10
2022-08-21T18:22:55.347Z,22.10
2022-08-21T18:25:21.962Z,22.10
2022-08-21T18:27:48.897Z,22.10
2022-08-21T18:30:18.283Z,22.10
2022-08-21T18:32:45.032Z,21.90
2022-08-21T18:35:11.770Z,21.80
2022-08-21T18:37:38.741Z,21.70
2022-08-21T18:40:08.252Z,21.70
2022-08-21T18:42:51.498Z,21.70
2022-08-21T18:45:22.062Z,21.70
2022-08-21T18:47:52.653Z,21.40
2022-08-21T18:50:21.753Z,21.20
2022-08-21T18:52:53.632Z,21.00
2022-08-21T18:55:21.370Z,20.90
2022-08-21T18:57:48.113Z,20.70
2022-08-21T19:00:17.641Z,20.60
2022-08-21T19:02:44.390Z,20.50
2022-08-21T19:05:12.549Z,20.40
2022-08-21T19:07:39.226Z,20.30
2022-08-21T19:10:27.482Z,20.20
2022-08-21T19:12:59.508Z,20.10
2022-08-21T19:15:26.544Z,20.00
2022-08-21T19:17:53.409Z,19.90
2022-08-21T19:20:26.144Z,19.80
2022-08-21T19:22:53.901Z,19.80
2022-08-21T19:25:20.752Z,19.70
2022-08-21T19:28:01.028Z,19.60
2022-08-21T19:30:28.687Z,19.50
2022-08-21T19:32:55.676Z,19.50
2022-08-21T19:35:23.110Z,19.50
2022-08-21T19:37:49.730Z,19.40
2022-08-21T19:40:19.230Z,19.30
2022-08-21T19:42:48.937Z,19.30
2022-08-21T19:45:15.593Z,19.50
2022-08-21T19:47:45.382Z,19.50
2022-08-21T19:50:17.410Z,19.50
2022-08-21T19:55:31.506Z,19.80
2022-08-21T19:58:07.993Z,19.90
2022-08-21T20:00:34.636Z,20.10
2022-08-21T20:03:01.729Z,20.20
2022-08-21T20:08:20.194Z,20.10
2022-08-21T20:10:47.737Z,20.20
2022-08-21T20:13:17.573Z,20.10
2022-08-21T20:15:45.532Z,20.10
2022-08-21T20:18:13.229Z,20.00
2022-08-21T20:20:39.984Z,19.90
2022-08-21T20:23:10.771Z,20.00
2022-08-21T20:25:37.785Z,19.90
2022-08-21T20:28:05.790Z,19.90
2022-08-21T20:30:32.678Z,20.00
2022-08-21T20:32:59.940Z,20.00
2022-08-21T20:35:26.729Z,20.00
2022-08-21T20:37:59.066Z,19.80
2022-08-21T20:46:00.689Z,19.70
2022-08-21T20:48:28.442Z,19.50
2022-08-21T20:51:27.062Z,19.40
2022-08-21T20:54:19.650Z,19.40
2022-08-21T20:56:54.325Z,19.40
2022-08-21T20:59:23.925Z,19.40
2022-08-21T21:01:50.853Z,19.30
2022-08-21T21:04:31.814Z,19.40
2022-08-21T21:06:59.238Z,19.40
2022-08-21T21:09:35.200Z,19.30
2022-08-21T21:12:10.846Z,19.30
2022-08-21T21:14:48.580Z,19.30
2022-08-21T21:17:34.579Z,19.30
2022-08-21T21:20:10.704Z,19.20
2022-08-21T21:23:00.093Z,19.20
2022-08-21T21:25:39.874Z,19.10
2022-08-21T21:28:12.862Z,19.10
2022-08-21T21:33:30.928Z,18.90
2022-08-21T21:36:23.384Z,18.90
2022-08-21T21:38:57.887Z,18.90
2022-08-21T21:41:44.716Z,18.70
2022-08-21T21:44:14.338Z,18.70
2022-08-21T21:46:48.539Z,18.60
2022-08-21T21:49:30.919Z,18.50
2022-08-21T21:52:13.939Z,18.50
2022-08-21T21:55:13.922Z,18.40
2022-08-21T21:58:03.937Z,18.40
2022-08-21T22:00:33.697Z,18.30
2022-08-21T22:03:15.043Z,18.20
2022-08-21T22:05:57.958Z,18.20
2022-08-21T22:09:10.412Z,18.20
2022-08-21T22:12:07.782Z,18.10
2022-08-21T22:14:40.652Z,18.10
2022-08-21T22:17:37.213Z,18.00
2022-08-21T22:20:12.208Z,17.90
2022-08-21T22:22:39.242Z,17.80
2022-08-21T22:25:21.460Z,17.80
2022-08-21T22:27:51.789Z,17.80
2022-08-21T22:30:47.162Z,17.60
2022-08-21T22:33:19.960Z,17.80
2022-08-21T22:35:47.469Z,17.60
2022-08-21T22:38:27.592Z,17.70
2022-08-21T22:41:12.680Z,17.70
2022-08-21T22:44:02.552Z,17.60
2022-08-21T22:46:48.400Z,17.60
2022-08-21T22:49:33.821Z,17.70
2022-08-21T22:52:26.105Z,17.70
2022-08-21T22:54:56.445Z,17.70
2022-08-21T22:57:28.889Z,17.70
2022-08-21T23:00:08.786Z,17.70
2022-08-21T23:02:52.220Z,17.60
2022-08-21T23:05:33.802Z,17.50
2022-08-21T23:08:13.118Z,17.50
2022-08-21T23:10:40.865Z,17.30
2022-08-21T23:13:13.215Z,17.30
2022-08-21T23:16:06.144Z,17.30
2022-08-21T23:19:05.651Z,17.30
2022-08-21T23:21:57.906Z,17.30
2022-08-21T23:24:46.556Z,17.30
2022-08-21T23:27:38.215Z,17.30
2022-08-21T23:30:14.749Z,17.30
2022-08-21T23:33:07.376Z,17.40
2022-08-21T23:36:04.362Z,17.40
2022-08-21T23:38:51.228Z,17.50
2022-08-21T23:41:34.473Z,17.40
2022-08-21T23:44:42.188Z,17.40
2022-08-21T23:47:18.102Z,17.30
2022-08-21T23:49:45.216Z,17.30
2022-08-21T23:52:20.462Z,17.20
2022-08-21T23:55:03.602Z,17.10
2022-08-21T23:57:50.935Z,16.90
